sensor_id;sensor_type;location;lat;lon;timestamp;P1;durP1;ratioP1;P2;durP2;ratioP2
16822;SDS011;8528;49.976;11.858;2023-05-07T00:00:44;6.23;;;5.63;;
16822;SDS011;8528;49.976;11.858;2023-05-07T00:03:10;6.57;;;5.63;;
16822;SDS011;8528;49.976;11.858;2023-05-07T00:05:39;6.00;;;5.37;;
16822;SDS011;8528;49.976;11.858;2023-05-07T00:08:07;6.63;;;5.43;;
16822;SDS011;8528;49.976;11.858;2023-05-07T00:10:34;7.27;;;5.07;;
16822;SDS011;8528;49.976;11.858;2023-05-07T00:13:01;6.00;;;5.43;;
16822;SDS011;8528;49.976;11.858;2023-05-07T00:15:27;7.27;;;5.87;;
16822;SDS011;8528;49.976;11.858;2023-05-07T00:17:55;6.20;;;5.30;;
16822;SDS011;8528;49.976;11.858;2023-05-07T00:20:22;7.93;;;6.30;;
16822;SDS011;8528;49.976;11.858;2023-05-07T00:22:48;6.43;;;5.77;;
16822;SDS011;8528;49.976;11.858;2023-05-07T00:25:15;7.43;;;6.70;;
16822;SDS011;8528;49.976;11.858;2023-05-07T00:27:42;6.43;;;5.83;;
16822;SDS011;8528;49.976;11.858;2023-05-07T00:32:39;7.37;;;6.20;;
16822;SDS011;8528;49.976;11.858;2023-05-07T00:35:06;7.50;;;6.47;;
16822;SDS011;8528;49.976;11.858;2023-05-07T00:37:34;6.03;;;5.50;;
16822;SDS011;8528;49.976;11.858;2023-05-07T00:40:01;6.43;;;5.83;;
16822;SDS011;8528;49.976;11.858;2023-05-07T00:42:30;6.63;;;6.00;;
16822;SDS011;8528;49.976;11.858;2023-05-07T00:44:58;9.37;;;5.87;;
16822;SDS011;8528;49.976;11.858;2023-05-07T00:47:25;7.73;;;6.33;;
16822;SDS011;8528;49.976;11.858;2023-05-07T00:49:52;9.83;;;6.30;;
16822;SDS011;8528;49.976;11.858;2023-05-07T00:52:19;6.80;;;6.10;;
16822;SDS011;8528;49.976;11.858;2023-05-07T00:55:00;6.77;;;6.10;;
16822;SDS011;8528;49.976;11.858;2023-05-07T00:57:36;7.43;;;6.70;;
16822;SDS011;8528;49.976;11.858;2023-05-07T01:00:04;6.67;;;5.90;;
16822;SDS011;8528;49.976;11.858;2023-05-07T01:02:31;6.77;;;6.17;;
16822;SDS011;8528;49.976;11.858;2023-05-07T01:05:03;6.57;;;5.93;;
16822;SDS011;8528;49.976;11.858;2023-05-07T01:07:33;7.00;;;6.40;;
16822;SDS011;8528;49.976;11.858;2023-05-07T01:10:01;6.23;;;5.67;;
16822;SDS011;8528;49.976;11.858;2023-05-07T01:12:29;6.80;;;6.17;;
16822;SDS011;8528;49.976;11.858;2023-05-07T01:14:57;7.33;;;6.03;;
16822;SDS011;8528;49.976;11.858;2023-05-07T01:17:24;6.37;;;5.73;;
16822;SDS011;8528;49.976;11.858;2023-05-07T01:19:51;6.13;;;5.47;;
16822;SDS011;8528;49.976;11.858;2023-05-07T01:22:29;6.40;;;5.47;;
16822;SDS011;8528;49.976;11.858;2023-05-07T01:24:58;5.90;;;5.40;;
16822;SDS011;8528;49.976;11.858;2023-05-07T01:30:21;6.40;;;5.73;;
16822;SDS011;8528;49.976;11.858;2023-05-07T01:32:51;6.43;;;5.80;;
16822;SDS011;8528;49.976;11.858;2023-05-07T01:35:24;6.40;;;5.80;;
16822;SDS011;8528;49.976;11.858;2023-05-07T01:37:54;6.50;;;5.90;;
16822;SDS011;8528;49.976;11.858;2023-05-07T01:40:30;6.80;;;6.20;;
16822;SDS011;8528;49.976;11.858;2023-05-07T01:42:56;7.27;;;6.60;;
16822;SDS011;8528;49.976;11.858;2023-05-07T01:45:23;7.17;;;6.07;;
16822;SDS011;8528;49.976;11.858;2023-05-07T01:47:51;7.50;;;6.13;;
16822;SDS011;8528;49.976;11.858;2023-05-07T01:50:19;8.00;;;7.17;;
16822;SDS011;8528;49.976;11.858;2023-05-07T01:52:47;8.10;;;7.07;;
16822;SDS011;8528;49.976;11.858;2023-05-07T01:55:17;8.40;;;7.40;;
16822;SDS011;8528;49.976;11.858;2023-05-07T01:57:44;7.30;;;6.60;;
16822;SDS011;8528;49.976;11.858;2023-05-07T02:00:11;6.20;;;5.23;;
16822;SDS011;8528;49.976;11.858;2023-05-07T02:02:38;7.87;;;5.87;;
16822;SDS011;8528;49.976;11.858;2023-05-07T02:05:05;7.47;;;6.77;;
16822;SDS011;8528;49.976;11.858;2023-05-07T02:07:45;6.50;;;5.80;;
16822;SDS011;8528;49.976;11.858;2023-05-07T02:10:12;6.47;;;5.87;;
16822;SDS011;8528;49.976;11.858;2023-05-07T02:12:39;6.30;;;5.70;;
16822;SDS011;8528;49.976;11.858;2023-05-07T02:15:06;6.70;;;6.10;;
16822;SDS011;8528;49.976;11.858;2023-05-07T02:17:33;7.17;;;6.47;;
16822;SDS011;8528;49.976;11.858;2023-05-07T02:20:00;7.00;;;6.30;;
16822;SDS011;8528;49.976;11.858;2023-05-07T02:22:26;7.63;;;6.93;;
16822;SDS011;8528;49.976;11.858;2023-05-07T02:24:53;7.97;;;6.90;;
16822;SDS011;8528;49.976;11.858;2023-05-07T02:27:20;8.17;;;7.00;;
16822;SDS011;8528;49.976;11.858;2023-05-07T02:29:47;7.23;;;6.53;;
16822;SDS011;8528;49.976;11.858;2023-05-07T02:32:13;7.80;;;7.00;;
16822;SDS011;8528;49.976;11.858;2023-05-07T02:34:40;8.73;;;7.23;;
16822;SDS011;8528;49.976;11.858;2023-05-07T02:43:13;8.83;;;8.00;;
16822;SDS011;8528;49.976;11.858;2023-05-07T02:45:40;8.23;;;7.40;;
16822;SDS011;8528;49.976;11.858;2023-05-07T02:48:07;8.87;;;7.23;;
16822;SDS011;8528;49.976;11.858;2023-05-07T02:50:33;9.03;;;8.17;;
16822;SDS011;8528;49.976;11.858;2023-05-07T02:53:01;9.27;;;7.97;;
16822;SDS011;8528;49.976;11.858;2023-05-07T02:55:28;9.20;;;8.27;;
16822;SDS011;8528;49.976;11.858;2023-05-07T02:57:54;8.00;;;6.90;;
16822;SDS011;8528;49.976;11.858;2023-05-07T03:00:21;7.57;;;6.33;;
16822;SDS011;8528;49.976;11.858;2023-05-07T03:02:48;7.40;;;6.70;;
16822;SDS011;8528;49.976;11.858;2023-05-07T03:05:15;6.70;;;6.10;;
16822;SDS011;8528;49.976;11.858;2023-05-07T03:07:41;5.63;;;5.13;;
16822;SDS011;8528;49.976;11.858;2023-05-07T03:10:11;6.30;;;5.70;;
16822;SDS011;8528;49.976;11.858;2023-05-07T03:12:38;6.53;;;5.80;;
16822;SDS011;8528;49.976;11.858;2023-05-07T03:15:05;8.70;;;7.70;;
16822;SDS011;8528;49.976;11.858;2023-05-07T03:17:33;9.37;;;8.13;;
16822;SDS011;8528;49.976;11.858;2023-05-07T03:19:59;10.03;;;9.03;;
16822;SDS011;8528;49.976;11.858;2023-05-07T03:22:26;10.83;;;9.23;;
16822;SDS011;8528;49.976;11.858;2023-05-07T03:24:53;11.27;;;8.63;;
16822;SDS011;8528;49.976;11.858;2023-05-07T03:27:20;9.53;;;8.50;;
16822;SDS011;8528;49.976;11.858;2023-05-07T03:29:47;9.00;;;8.10;;
16822;SDS011;8528;49.976;11.858;2023-05-07T03:32:13;7.10;;;6.43;;
16822;SDS011;8528;49.976;11.858;2023-05-07T03:34:40;7.73;;;6.87;;
16822;SDS011;8528;49.976;11.858;2023-05-07T03:37:07;8.17;;;7.37;;
16822;SDS011;8528;49.976;11.858;2023-05-07T03:39:34;7.73;;;7.00;;
16822;SDS011;8528;49.976;11.858;2023-05-07T03:42:01;8.00;;;7.20;;
16822;SDS011;8528;49.976;11.858;2023-05-07T03:44:29;9.87;;;7.67;;
16822;SDS011;8528;49.976;11.858;2023-05-07T03:46:55;9.93;;;7.57;;
16822;SDS011;8528;49.976;11.858;2023-05-07T03:49:22;9.17;;;8.20;;
16822;SDS011;8528;49.976;11.858;2023-05-07T03:51:49;10.07;;;8.43;;
16822;SDS011;8528;49.976;11.858;2023-05-07T03:54:15;11.87;;;9.43;;
16822;SDS011;8528;49.976;11.858;2023-05-07T03:56:42;10.50;;;9.40;;
16822;SDS011;8528;49.976;11.858;2023-05-07T03:59:08;10.97;;;9.10;;
16822;SDS011;8528;49.976;11.858;2023-05-07T04:01:35;10.83;;;8.80;;
16822;SDS011;8528;49.976;11.858;2023-05-07T04:04:02;8.87;;;7.97;;
16822;SDS011;8528;49.976;11.858;2023-05-07T04:06:30;8.83;;;7.93;;
16822;SDS011;8528;49.976;11.858;2023-05-07T04:08:57;9.97;;;8.73;;
16822;SDS011;8528;49.976;11.858;2023-05-07T04:11:24;10.00;;;8.83;;
16822;SDS011;8528;49.976;11.858;2023-05-07T04:13:51;10.97;;;9.33;;
16822;SDS011;8528;49.976;11.858;2023-05-07T04:16:17;15.03;;;12.33;;
16822;SDS011;8528;49.976;11.858;2023-05-07T04:18:44;14.60;;;11.93;;
16822;SDS011;8528;49.976;11.858;2023-05-07T04:21:18;16.37;;;12.20;;
16822;SDS011;8528;49.976;11.858;2023-05-07T04:23:46;20.77;;;16.07;;
16822;SDS011;8528;49.976;11.858;2023-05-07T04:26:13;20.07;;;16.13;;
16822;SDS011;8528;49.976;11.858;2023-05-07T04:28:41;17.13;;;14.63;;
16822;SDS011;8528;49.976;11.858;2023-05-07T04:31:08;19.63;;;15.57;;
16822;SDS011;8528;49.976;11.858;2023-05-07T04:33:35;24.93;;;17.53;;
16822;SDS011;8528;49.976;11.858;2023-05-07T04:36:02;20.93;;;16.97;;
16822;SDS011;8528;49.976;11.858;2023-05-07T04:38:30;23.73;;;17.70;;
16822;SDS011;8528;49.976;11.858;2023-05-07T04:40:58;21.67;;;17.70;;
16822;SDS011;8528;49.976;11.858;2023-05-07T04:43:29;22.37;;;17.20;;
16822;SDS011;8528;49.976;11.858;2023-05-07T04:45:56;21.77;;;17.57;;
16822;SDS011;8528;49.976;11.858;2023-05-07T04:48:23;23.53;;;17.50;;
16822;SDS011;8528;49.976;11.858;2023-05-07T04:50:50;22.63;;;17.97;;
16822;SDS011;8528;49.976;11.858;2023-05-07T04:53:35;25.77;;;18.30;;
16822;SDS011;8528;49.976;11.858;2023-05-07T04:56:02;24.73;;;18.40;;
16822;SDS011;8528;49.976;11.858;2023-05-07T04:58:29;25.43;;;18.17;;
16822;SDS011;8528;49.976;11.858;2023-05-07T05:00:58;22.37;;;17.53;;
16822;SDS011;8528;49.976;11.858;2023-05-07T05:03:25;24.40;;;19.17;;
16822;SDS011;8528;49.976;11.858;2023-05-07T05:05:52;21.37;;;17.37;;
16822;SDS011;8528;49.976;11.858;2023-05-07T05:08:19;22.03;;;17.57;;
16822;SDS011;8528;49.976;11.858;2023-05-07T05:10:54;25.53;;;17.67;;
16822;SDS011;8528;49.976;11.858;2023-05-07T05:13:21;20.77;;;16.63;;
16822;SDS011;8528;49.976;11.858;2023-05-07T05:15:48;22.47;;;16.90;;
16822;SDS011;8528;49.976;11.858;2023-05-07T05:18:15;19.03;;;15.53;;
16822;SDS011;8528;49.976;11.858;2023-05-07T05:20:42;20.10;;;16.27;;
16822;SDS011;8528;49.976;11.858;2023-05-07T05:23:09;19.80;;;16.27;;
16822;SDS011;8528;49.976;11.858;2023-05-07T05:25:36;18.30;;;15.03;;
16822;SDS011;8528;49.976;11.858;2023-05-07T05:28:03;17.77;;;15.13;;
16822;SDS011;8528;49.976;11.858;2023-05-07T05:30:30;18.17;;;14.70;;
16822;SDS011;8528;49.976;11.858;2023-05-07T05:32:57;19.87;;;15.07;;
16822;SDS011;8528;49.976;11.858;2023-05-07T05:35:23;19.77;;;14.70;;
16822;SDS011;8528;49.976;11.858;2023-05-07T05:38:07;19.47;;;13.63;;
16822;SDS011;8528;49.976;11.858;2023-05-07T05:40:34;19.20;;;15.10;;
16822;SDS011;8528;49.976;11.858;2023-05-07T05:43:01;18.13;;;14.00;;
16822;SDS011;8528;49.976;11.858;2023-05-07T05:45:27;19.23;;;15.03;;
16822;SDS011;8528;49.976;11.858;2023-05-07T05:47:55;16.63;;;14.80;;
16822;SDS011;8528;49.976;11.858;2023-05-07T05:50:22;15.87;;;14.17;;
16822;SDS011;8528;49.976;11.858;2023-05-07T05:52:49;17.53;;;13.37;;
16822;SDS011;8528;49.976;11.858;2023-05-07T05:55:16;17.77;;;14.13;;
16822;SDS011;8528;49.976;11.858;2023-05-07T05:57:43;17.20;;;13.63;;
16822;SDS011;8528;49.976;11.858;2023-05-07T06:00:10;16.53;;;14.00;;
16822;SDS011;8528;49.976;11.858;2023-05-07T06:02:38;17.90;;;14.50;;
16822;SDS011;8528;49.976;11.858;2023-05-07T06:05:05;14.63;;;12.97;;
16822;SDS011;8528;49.976;11.858;2023-05-07T06:07:32;16.80;;;12.77;;
16822;SDS011;8528;49.976;11.858;2023-05-07T06:10:01;14.23;;;12.63;;
16822;SDS011;8528;49.976;11.858;2023-05-07T06:12:27;13.77;;;11.50;;
16822;SDS011;8528;49.976;11.858;2023-05-07T06:14:54;13.17;;;11.43;;
16822;SDS011;8528;49.976;11.858;2023-05-07T06:17:21;12.30;;;11.07;;
16822;SDS011;8528;49.976;11.858;2023-05-07T06:19:48;14.70;;;13.20;;
16822;SDS011;8528;49.976;11.858;2023-05-07T06:22:14;13.03;;;11.63;;
16822;SDS011;8528;49.976;11.858;2023-05-07T06:24:41;14.67;;;13.17;;
16822;SDS011;8528;49.976;11.858;2023-05-07T06:27:08;13.50;;;12.07;;
16822;SDS011;8528;49.976;11.858;2023-05-07T06:29:34;12.13;;;10.83;;
16822;SDS011;8528;49.976;11.858;2023-05-07T06:35:22;12.90;;;11.60;;
16822;SDS011;8528;49.976;11.858;2023-05-07T06:37:49;12.02;;;10.75;;
16822;SDS011;8528;49.976;11.858;2023-05-07T06:40:26;11.98;;;10.77;;
16822;SDS011;8528;49.976;11.858;2023-05-07T06:42:53;12.75;;;10.93;;
16822;SDS011;8528;49.976;11.858;2023-05-07T06:45:19;11.85;;;10.65;;
16822;SDS011;8528;49.976;11.858;2023-05-07T06:47:46;12.75;;;11.40;;
16822;SDS011;8528;49.976;11.858;2023-05-07T06:50:13;12.75;;;11.45;;
16822;SDS011;8528;49.976;11.858;2023-05-07T06:55:41;10.57;;;9.57;;
16822;SDS011;8528;49.976;11.858;2023-05-07T06:58:08;10.93;;;10.00;;
16822;SDS011;8528;49.976;11.858;2023-05-07T07:00:35;12.18;;;10.98;;
16822;SDS011;8528;49.976;11.858;2023-05-07T07:03:01;12.30;;;11.20;;
16822;SDS011;8528;49.976;11.858;2023-05-07T07:05:28;12.20;;;11.10;;
16822;SDS011;8528;49.976;11.858;2023-05-07T07:07:55;12.52;;;11.43;;
16822;SDS011;8528;49.976;11.858;2023-05-07T07:10:22;11.52;;;10.52;;
16822;SDS011;8528;49.976;11.858;2023-05-07T07:12:49;11.07;;;10.07;;
16822;SDS011;8528;49.976;11.858;2023-05-07T07:15:16;10.48;;;9.48;;
16822;SDS011;8528;49.976;11.858;2023-05-07T07:17:43;10.20;;;9.40;;
16822;SDS011;8528;49.976;11.858;2023-05-07T07:20:09;11.23;;;10.30;;
16822;SDS011;8528;49.976;11.858;2023-05-07T07:22:37;9.25;;;8.40;;
16822;SDS011;8528;49.976;11.858;2023-05-07T07:25:04;10.68;;;9.80;;
16822;SDS011;8528;49.976;11.858;2023-05-07T07:27:31;9.30;;;8.48;;
16822;SDS011;8528;49.976;11.858;2023-05-07T07:29:57;9.38;;;8.55;;
16822;SDS011;8528;49.976;11.858;2023-05-07T07:32:24;9.18;;;8.48;;
16822;SDS011;8528;49.976;11.858;2023-05-07T07:34:51;9.05;;;8.32;;
16822;SDS011;8528;49.976;11.858;2023-05-07T07:39:48;9.00;;;8.15;;
16822;SDS011;8528;49.976;11.858;2023-05-07T07:42:14;8.93;;;8.02;;
16822;SDS011;8528;49.976;11.858;2023-05-07T07:44:41;8.80;;;8.00;;
16822;SDS011;8528;49.976;11.858;2023-05-07T07:47:08;7.85;;;7.15;;
16822;SDS011;8528;49.976;11.858;2023-05-07T07:49:40;8.85;;;8.05;;
16822;SDS011;8528;49.976;11.858;2023-05-07T07:52:07;8.65;;;7.85;;
16822;SDS011;8528;49.976;11.858;2023-05-07T07:54:46;7.78;;;6.90;;
16822;SDS011;8528;49.976;11.858;2023-05-07T07:57:12;9.48;;;8.30;;
16822;SDS011;8528;49.976;11.858;2023-05-07T07:59:47;8.15;;;7.22;;
16822;SDS011;8528;49.976;11.858;2023-05-07T08:02:13;8.98;;;8.13;;
16822;SDS011;8528;49.976;11.858;2023-05-07T08:04:40;9.77;;;8.65;;
16822;SDS011;8528;49.976;11.858;2023-05-07T08:07:09;8.93;;;8.02;;
16822;SDS011;8528;49.976;11.858;2023-05-07T08:09:37;10.82;;;8.63;;
16822;SDS011;8528;49.976;11.858;2023-05-07T08:12:07;10.02;;;9.13;;
16822;SDS011;8528;49.976;11.858;2023-05-07T08:14:34;9.00;;;8.10;;
16822;SDS011;8528;49.976;11.858;2023-05-07T08:17:02;10.50;;;8.80;;
16822;SDS011;8528;49.976;11.858;2023-05-07T08:19:29;9.38;;;8.43;;
16822;SDS011;8528;49.976;11.858;2023-05-07T08:21:56;9.07;;;8.27;;
16822;SDS011;8528;49.976;11.858;2023-05-07T08:24:23;9.70;;;8.35;;
16822;SDS011;8528;49.976;11.858;2023-05-07T08:26:49;9.38;;;8.25;;
16822;SDS011;8528;49.976;11.858;2023-05-07T08:29:16;9.65;;;8.13;;
16822;SDS011;8528;49.976;11.858;2023-05-07T08:31:49;10.13;;;8.35;;
16822;SDS011;8528;49.976;11.858;2023-05-07T08:34:16;8.52;;;7.82;;
16822;SDS011;8528;49.976;11.858;2023-05-07T08:39:29;9.68;;;8.35;;
16822;SDS011;8528;49.976;11.858;2023-05-07T08:41:56;10.45;;;8.23;;
16822;SDS011;8528;49.976;11.858;2023-05-07T08:44:26;9.23;;;8.35;;
16822;SDS011;8528;49.976;11.858;2023-05-07T08:46:54;8.63;;;7.82;;
16822;SDS011;8528;49.976;11.858;2023-05-07T08:49:22;8.60;;;7.80;;
16822;SDS011;8528;49.976;11.858;2023-05-07T08:54:40;9.27;;;8.40;;
16822;SDS011;8528;49.976;11.858;2023-05-07T08:57:07;8.18;;;7.28;;
16822;SDS011;8528;49.976;11.858;2023-05-07T08:59:34;8.38;;;7.57;;
16822;SDS011;8528;49.976;11.858;2023-05-07T09:02:02;8.50;;;7.70;;
16822;SDS011;8528;49.976;11.858;2023-05-07T09:04:29;9.30;;;8.40;;
16822;SDS011;8528;49.976;11.858;2023-05-07T09:06:59;7.95;;;7.25;;
16822;SDS011;8528;49.976;11.858;2023-05-07T09:09:32;10.70;;;7.00;;
16822;SDS011;8528;49.976;11.858;2023-05-07T09:12:12;7.75;;;7.05;;
16822;SDS011;8528;49.976;11.858;2023-05-07T09:14:38;8.93;;;8.02;;
16822;SDS011;8528;49.976;11.858;2023-05-07T09:17:06;8.60;;;7.70;;
16822;SDS011;8528;49.976;11.858;2023-05-07T09:19:35;8.65;;;7.75;;
16822;SDS011;8528;49.976;11.858;2023-05-07T09:22:03;8.88;;;7.25;;
16822;SDS011;8528;49.976;11.858;2023-05-07T09:30:33;8.37;;;7.50;;
16822;SDS011;8528;49.976;11.858;2023-05-07T09:33:01;8.63;;;7.70;;
16822;SDS011;8528;49.976;11.858;2023-05-07T09:35:43;7.60;;;6.90;;
16822;SDS011;8528;49.976;11.858;2023-05-07T09:38:11;7.30;;;6.60;;
16822;SDS011;8528;49.976;11.858;2023-05-07T09:40:39;7.50;;;6.70;;
16822;SDS011;8528;49.976;11.858;2023-05-07T09:43:09;8.10;;;7.30;;
16822;SDS011;8528;49.976;11.858;2023-05-07T09:45:40;7.37;;;6.67;;
16822;SDS011;8528;49.976;11.858;2023-05-07T09:48:07;7.60;;;7.00;;
16822;SDS011;8528;49.976;11.858;2023-05-07T09:50:40;7.27;;;6.57;;
16822;SDS011;8528;49.976;11.858;2023-05-07T09:53:15;7.00;;;6.30;;
16822;SDS011;8528;49.976;11.858;2023-05-07T09:55:43;8.10;;;7.17;;
16822;SDS011;8528;49.976;11.858;2023-05-07T09:58:12;7.63;;;6.83;;
16822;SDS011;8528;49.976;11.858;2023-05-07T10:00:41;6.13;;;5.50;;
16822;SDS011;8528;49.976;11.858;2023-05-07T10:03:09;8.10;;;6.80;;
16822;SDS011;8528;49.976;11.858;2023-05-07T10:05:37;6.67;;;6.07;;
16822;SDS011;8528;49.976;11.858;2023-05-07T10:08:04;7.40;;;6.20;;
16822;SDS011;8528;49.976;11.858;2023-05-07T10:10:50;7.30;;;5.80;;
16822;SDS011;8528;49.976;11.858;2023-05-07T10:13:23;6.37;;;5.37;;
16822;SDS011;8528;49.976;11.858;2023-05-07T10:18:43;8.03;;;5.77;;
16822;SDS011;8528;49.976;11.858;2023-05-07T10:21:13;6.17;;;5.57;;
16822;SDS011;8528;49.976;11.858;2023-05-07T10:23:50;5.93;;;4.97;;
16822;SDS011;8528;49.976;11.858;2023-05-07T10:26:23;5.10;;;4.70;;
16822;SDS011;8528;49.976;11.858;2023-05-07T10:29:03;5.73;;;4.70;;
16822;SDS011;8528;49.976;11.858;2023-05-07T10:31:52;6.67;;;5.10;;
16822;SDS011;8528;49.976;11.858;2023-05-07T10:34:42;5.50;;;5.00;;
16822;SDS011;8528;49.976;11.858;2023-05-07T10:37:11;6.47;;;5.37;;
16822;SDS011;8528;49.976;11.858;2023-05-07T10:39:39;5.10;;;4.60;;
16822;SDS011;8528;49.976;11.858;2023-05-07T10:42:07;5.70;;;5.20;;
16822;SDS011;8528;49.976;11.858;2023-05-07T10:44:38;5.13;;;4.63;;
16822;SDS011;8528;49.976;11.858;2023-05-07T10:52:32;5.43;;;4.95;;
16822;SDS011;8528;49.976;11.858;2023-05-07T10:57:51;4.93;;;4.43;;
16822;SDS011;8528;49.976;11.858;2023-05-07T11:03:04;5.07;;;4.68;;
16822;SDS011;8528;49.976;11.858;2023-05-07T11:05:35;4.97;;;4.57;;
16822;SDS011;8528;49.976;11.858;2023-05-07T11:08:05;4.85;;;4.45;;
16822;SDS011;8528;49.976;11.858;2023-05-07T11:16:23;5.50;;;4.60;;
16822;SDS011;8528;49.976;11.858;2023-05-07T11:18:54;7.90;;;4.40;;
16822;SDS011;8528;49.976;11.858;2023-05-07T11:24:20;5.32;;;4.82;;
16822;SDS011;8528;49.976;11.858;2023-05-07T11:29:34;7.97;;;4.88;;
16822;SDS011;8528;49.976;11.858;2023-05-07T11:34:56;4.97;;;4.50;;
16822;SDS011;8528;49.976;11.858;2023-05-07T11:37:25;5.03;;;4.53;;
16822;SDS011;8528;49.976;11.858;2023-05-07T11:40:04;5.93;;;5.33;;
16822;SDS011;8528;49.976;11.858;2023-05-07T11:42:37;7.80;;;5.17;;
16822;SDS011;8528;49.976;11.858;2023-05-07T11:45:06;4.68;;;4.28;;
16822;SDS011;8528;49.976;11.858;2023-05-07T11:47:33;5.43;;;4.93;;
16822;SDS011;8528;49.976;11.858;2023-05-07T11:50:07;4.85;;;4.45;;
16822;SDS011;8528;49.976;11.858;2023-05-07T11:52:34;5.65;;;5.15;;
16822;SDS011;8528;49.976;11.858;2023-05-07T11:55:02;6.00;;;4.70;;
16822;SDS011;8528;49.976;11.858;2023-05-07T11:57:32;5.38;;;4.85;;
16822;SDS011;8528;49.976;11.858;2023-05-07T12:00:00;5.45;;;4.93;;
16822;SDS011;8528;49.976;11.858;2023-05-07T12:02:31;4.95;;;4.55;;
16822;SDS011;8528;49.976;11.858;2023-05-07T12:05:00;5.40;;;4.90;;
16822;SDS011;8528;49.976;11.858;2023-05-07T12:07:27;5.35;;;4.32;;
16822;SDS011;8528;49.976;11.858;2023-05-07T12:09:54;4.63;;;3.78;;
16822;SDS011;8528;49.976;11.858;2023-05-07T12:12:20;4.40;;;4.00;;
16822;SDS011;8528;49.976;11.858;2023-05-07T12:14:47;5.00;;;4.50;;
16822;SDS011;8528;49.976;11.858;2023-05-07T12:17:14;4.32;;;4.00;;
16822;SDS011;8528;49.976;11.858;2023-05-07T12:19:43;4.47;;;4.07;;
16822;SDS011;8528;49.976;11.858;2023-05-07T12:22:11;4.20;;;3.80;;
16822;SDS011;8528;49.976;11.858;2023-05-07T12:24:45;3.80;;;3.50;;
16822;SDS011;8528;49.976;11.858;2023-05-07T12:27:14;3.22;;;3.00;;
16822;SDS011;8528;49.976;11.858;2023-05-07T12:32:31;3.90;;;3.50;;
16822;SDS011;8528;49.976;11.858;2023-05-07T12:35:03;3.00;;;2.70;;
16822;SDS011;8528;49.976;11.858;2023-05-07T12:37:41;3.35;;;2.97;;
16822;SDS011;8528;49.976;11.858;2023-05-07T12:40:09;3.90;;;3.45;;
16822;SDS011;8528;49.976;11.858;2023-05-07T12:42:37;3.70;;;3.40;;
16822;SDS011;8528;49.976;11.858;2023-05-07T12:45:12;3.67;;;3.38;;
16822;SDS011;8528;49.976;11.858;2023-05-07T12:47:46;5.07;;;4.15;;
16822;SDS011;8528;49.976;11.858;2023-05-07T12:50:14;4.35;;;4.00;;
16822;SDS011;8528;49.976;11.858;2023-05-07T12:52:45;4.80;;;4.32;;
16822;SDS011;8528;49.976;11.858;2023-05-07T12:55:14;4.80;;;4.40;;
16822;SDS011;8528;49.976;11.858;2023-05-07T12:57:43;4.38;;;3.97;;
16822;SDS011;8528;49.976;11.858;2023-05-07T13:00:14;5.18;;;3.50;;
16822;SDS011;8528;49.976;11.858;2023-05-07T13:02:41;4.65;;;4.25;;
16822;SDS011;8528;49.976;11.858;2023-05-07T13:05:12;4.82;;;4.43;;
16822;SDS011;8528;49.976;11.858;2023-05-07T13:07:39;4.63;;;4.22;;
16822;SDS011;8528;49.976;11.858;2023-05-07T13:10:07;5.40;;;4.88;;
16822;SDS011;8528;49.976;11.858;2023-05-07T13:12:47;6.30;;;4.60;;
16822;SDS011;8528;49.976;11.858;2023-05-07T13:15:13;5.80;;;4.72;;
16822;SDS011;8528;49.976;11.858;2023-05-07T13:17:40;5.65;;;4.57;;
16822;SDS011;8528;49.976;11.858;2023-05-07T13:20:08;4.93;;;4.43;;
16822;SDS011;8528;49.976;11.858;2023-05-07T13:22:36;5.97;;;5.47;;
16822;SDS011;8528;49.976;11.858;2023-05-07T13:25:03;5.45;;;4.80;;
16822;SDS011;8528;49.976;11.858;2023-05-07T13:27:30;5.47;;;4.97;;
16822;SDS011;8528;49.976;11.858;2023-05-07T13:29:57;5.97;;;5.37;;
16822;SDS011;8528;49.976;11.858;2023-05-07T13:32:24;5.77;;;5.27;;
16822;SDS011;8528;49.976;11.858;2023-05-07T13:34:51;5.43;;;4.93;;
16822;SDS011;8528;49.976;11.858;2023-05-07T13:37:18;5.57;;;5.07;;
16822;SDS011;8528;49.976;11.858;2023-05-07T13:39:45;5.37;;;4.87;;
16822;SDS011;8528;49.976;11.858;2023-05-07T13:42:12;5.30;;;4.80;;
16822;SDS011;8528;49.976;11.858;2023-05-07T13:44:38;5.50;;;5.00;;
16822;SDS011;8528;49.976;11.858;2023-05-07T13:47:08;6.10;;;5.60;;
16822;SDS011;8528;49.976;11.858;2023-05-07T13:49:35;6.43;;;5.83;;
16822;SDS011;8528;49.976;11.858;2023-05-07T13:52:03;7.40;;;5.97;;
16822;SDS011;8528;49.976;11.858;2023-05-07T13:54:30;5.80;;;5.27;;
16822;SDS011;8528;49.976;11.858;2023-05-07T13:56:57;5.83;;;5.33;;
16822;SDS011;8528;49.976;11.858;2023-05-07T13:59:24;6.20;;;5.60;;
16822;SDS011;8528;49.976;11.858;2023-05-07T14:01:50;6.13;;;5.57;;
16822;SDS011;8528;49.976;11.858;2023-05-07T14:04:17;6.13;;;5.57;;
16822;SDS011;8528;49.976;11.858;2023-05-07T14:06:44;5.97;;;5.07;;
16822;SDS011;8528;49.976;11.858;2023-05-07T14:09:11;6.03;;;5.00;;
16822;SDS011;8528;49.976;11.858;2023-05-07T14:11:39;6.03;;;5.23;;
16822;SDS011;8528;49.976;11.858;2023-05-07T14:14:06;4.53;;;4.13;;
16822;SDS011;8528;49.976;11.858;2023-05-07T14:16:33;5.00;;;4.50;;
16822;SDS011;8528;49.976;11.858;2023-05-07T14:18:59;5.37;;;4.87;;
16822;SDS011;8528;49.976;11.858;2023-05-07T14:21:26;5.40;;;4.90;;
16822;SDS011;8528;49.976;11.858;2023-05-07T14:23:53;5.67;;;5.07;;
16822;SDS011;8528;49.976;11.858;2023-05-07T14:26:20;5.20;;;4.70;;
16822;SDS011;8528;49.976;11.858;2023-05-07T14:28:47;5.97;;;5.37;;
16822;SDS011;8528;49.976;11.858;2023-05-07T14:31:14;6.23;;;5.63;;
16822;SDS011;8528;49.976;11.858;2023-05-07T14:33:42;6.03;;;5.43;;
16822;SDS011;8528;49.976;11.858;2023-05-07T14:36:09;7.23;;;5.70;;
16822;SDS011;8528;49.976;11.858;2023-05-07T14:38:36;8.37;;;5.83;;
16822;SDS011;8528;49.976;11.858;2023-05-07T14:41:02;7.23;;;5.83;;
16822;SDS011;8528;49.976;11.858;2023-05-07T14:43:29;7.40;;;5.47;;
16822;SDS011;8528;49.976;11.858;2023-05-07T14:45:56;6.60;;;5.90;;
16822;SDS011;8528;49.976;11.858;2023-05-07T14:48:23;5.83;;;5.33;;
16822;SDS011;8528;49.976;11.858;2023-05-07T14:50:50;6.20;;;5.20;;
16822;SDS011;8528;49.976;11.858;2023-05-07T14:53:16;10.50;;;6.10;;
16822;SDS011;8528;49.976;11.858;2023-05-07T14:55:43;5.87;;;5.27;;
16822;SDS011;8528;49.976;11.858;2023-05-07T14:58:10;5.97;;;5.27;;
16822;SDS011;8528;49.976;11.858;2023-05-07T15:00:37;6.17;;;4.90;;
16822;SDS011;8528;49.976;11.858;2023-05-07T15:03:08;5.80;;;5.23;;
16822;SDS011;8528;49.976;11.858;2023-05-07T15:05:37;6.67;;;5.63;;
16822;SDS011;8528;49.976;11.858;2023-05-07T15:08:04;5.77;;;5.27;;
16822;SDS011;8528;49.976;11.858;2023-05-07T15:10:34;6.30;;;5.70;;
16822;SDS011;8528;49.976;11.858;2023-05-07T15:13:07;5.60;;;5.10;;
16822;SDS011;8528;49.976;11.858;2023-05-07T15:15:36;6.37;;;5.73;;
16822;SDS011;8528;49.976;11.858;2023-05-07T15:18:04;6.40;;;5.80;;
16822;SDS011;8528;49.976;11.858;2023-05-07T15:20:45;6.60;;;6.00;;
16822;SDS011;8528;49.976;11.858;2023-05-07T15:26:25;6.60;;;6.00;;
16822;SDS011;8528;49.976;11.858;2023-05-07T15:28:52;7.00;;;6.27;;
16822;SDS011;8528;49.976;11.858;2023-05-07T15:31:21;8.30;;;6.70;;
16822;SDS011;8528;49.976;11.858;2023-05-07T15:33:50;6.53;;;5.93;;
16822;SDS011;8528;49.976;11.858;2023-05-07T15:36:25;7.53;;;6.83;;
16822;SDS011;8528;49.976;11.858;2023-05-07T15:38:53;8.43;;;6.83;;
16822;SDS011;8528;49.976;11.858;2023-05-07T15:44:09;7.40;;;6.77;;
16822;SDS011;8528;49.976;11.858;2023-05-07T15:46:43;7.37;;;6.67;;
16822;SDS011;8528;49.976;11.858;2023-05-07T15:49:23;7.83;;;7.03;;
16822;SDS011;8528;49.976;11.858;2023-05-07T15:51:50;10.80;;;7.93;;
16822;SDS011;8528;49.976;11.858;2023-05-07T15:54:18;7.93;;;7.13;;
16822;SDS011;8528;49.976;11.858;2023-05-07T15:56:46;8.97;;;6.97;;